Airfield :
LOGIN :

Register | Disclaimer

   EN    FR    IT 

 










Legend :    VFR   Marginal VFR   IFR   Intensive IFR   Very Intensive IFR
Visi :
Ceiling :
>= 8 km
>= 3000ft
5 to 8 km
1000 to 3000 ft
1500m to 5 km
500 to 1000 ft
800 to 1500m
200 to 500 ft
< 800m
< 200 ft
Symbols :   Thunderstorms  Fog  Heavy snow  Heavy precipitations  Wind > 20 kt
SIGMETs :     Misc.  Thunderstorms  Icing  Turbulence  Mountain Waves  Volcanic Ashes







- Airport Elevation : 1046 ft
- IATA code : NUE


EDDN - Nuremberg

CURRENT METAR :
  • 200750Z 33006KT 290V360 9999 FEW008 15/13 Q1002 NOSIG

EXPIRED METARs :
  • 200720Z 33006KT 9999 FEW005 14/13 Q1002 NOSIG
  • 200650Z 34006KT 9999 FEW004 14/12 Q1002 NOSIG
  • 200620Z 33007KT 9999 FEW004 13/12 Q1002 NOSIG
  • 200550Z 34006KT 9999 FEW004 13/12 Q1002 NOSIG
  • 200520Z 33006KT 9999 FEW003 12/12 Q1002 NOSIG

TAF TAF EDDN
Valid from the 20 at 06:00 until the 21 at 06:00 UTC


200500Z 2006/2106 33005KT 9999 SCT030
PROB40
TEMPO 2009/2016 TSRA BKN025CB
TEMPO 2016/2106 RA
BECMG 2020/2023 BKN008
TEMPO 2100/2106 BKN004
No reported NOTAMs for that airfield.
2 SIGMETs reported for the München FIR (EDMM) :
 
Embedded thunderstorms
EDMM SIGMET 1 VALID 200721/200900 EDZF
EDMM MUNCHEN FIR EMBD TS FCST WI N4812 E01104 - N4811 E01227 - N4745 E01225 - N4736 E01101 - N4812 E01104 TOP FL300 MOV S NC=
Embedded thunderstorms
EDMM SIGMET 1 VALID 200720/200900 EDZF
EDMM MUNCHEN FIR EMBD TS FCST WI N4812 E01104 - N4811 E01227 - N4745 E01225 - N4736 E01101 - N4812 E01104 TOP FL300 MOV S NC=



MET'MAP, your aeronautical weather chart ! - Copyright ORBIFLY December 2007 - Disclaimer

ORBIFLY MET'MAP TEAM :

Programming & Development : Alexandra Zaïnal
Concept & Development : Baudouin d'Aumeries
Co-Development & Prog : Marc-Olivier Méhu
Technical & hardware support : Manuel Goepfert

Contact : metmap@orbifly.com




SOURCES & CREDITS :

   NOAA